Time,TemperatureF,DewpointF,PressureIn,WindDirection,WindDirectionDegrees,WindSpeedMPH,WindSpeedGustMPH,Humidity,HourlyPrecipIn,Conditions,Clouds,dailyrainin,SoftwareType,DateUTC
2013-02-04 00:00:00,30.0,27.2,29.84,WNW,286,6.0,16.0,89,0.00,,---,0.01,VWS V14.01,2013-02-04 05:00:00,
2013-02-04 00:02:00,30.0,27.2,29.84,West,279,4.0,5.0,89,0.00,,---,0.00,VWS V14.01,2013-02-04 05:02:00,
2013-02-04 00:07:00,30.0,27.2,29.84,SW,234,5.0,9.0,89,0.00,,---,0.00,VWS V14.01,2013-02-04 05:07:00,
2013-02-04 00:12:00,30.1,27.3,29.84,SW,220,5.0,11.0,89,0.00,,---,0.00,VWS V14.01,2013-02-04 05:12:00,
2013-02-04 00:17:00,30.2,26.8,29.84,WSW,255,12.0,14.0,87,0.00,,---,0.00,VWS V14.01,2013-02-04 05:17:00,
2013-02-04 00:22:00,30.4,27.0,29.84,WSW,243,14.0,19.0,87,0.00,,---,0.00,VWS V14.01,2013-02-04 05:22:00,
2013-02-04 00:27:00,30.1,27.5,29.84,SSE,163,18.0,20.0,90,0.00,,---,0.00,VWS V14.01,2013-02-04 05:27:00,
2013-02-04 00:32:00,30.2,27.9,29.85,West,266,8.0,21.0,91,0.00,,---,0.00,VWS V14.01,2013-02-04 05:32:00,
2013-02-04 00:37:00,30.5,27.6,29.85,WSW,255,10.0,21.0,89,0.00,,---,0.00,VWS V14.01,2013-02-04 05:37:00,
2013-02-04 00:42:00,30.6,27.8,29.85,SW,226,15.0,21.0,89,0.00,,---,0.00,VWS V14.01,2013-02-04 05:42:00,
2013-02-04 00:47:00,30.4,27.5,29.85,WSW,242,16.0,21.0,89,0.00,,---,0.00,VWS V14.01,2013-02-04 05:47:00,
2013-02-04 00:52:00,30.1,27.5,29.85,West,272,17.0,22.0,90,0.00,,---,0.00,VWS V14.01,2013-02-04 05:52:00,
2013-02-04 00:57:00,30.0,27.7,29.86,SW,229,8.0,23.0,91,0.00,,---,0.00,VWS V14.01,2013-02-04 05:57:00,
2013-02-04 01:03:00,30.0,26.0,29.86,WSW,257,14.0,28.0,85,0.00,,---,0.00,VWS V14.01,2013-02-04 06:03:00,
2013-02-04 01:08:00,29.9,24.8,29.86,WNW,300,22.0,28.0,81,0.00,,---,0.00,VWS V14.01,2013-02-04 06:08:00,
2013-02-04 01:13:00,30.0,24.6,29.86,NNW,336,18.0,32.0,80,0.00,,---,0.00,VWS V14.01,2013-02-04 06:13:00,
2013-02-04 01:18:00,30.0,23.4,29.86,WNW,285,22.0,32.0,76,0.00,,---,0.00,VWS V14.01,2013-02-04 06:18:00,
2013-02-04 01:23:00,30.0,20.7,29.86,West,276,23.0,34.0,68,0.00,,---,0.00,VWS V14.01,2013-02-04 06:23:00,
2013-02-04 01:28:00,29.7,19.0,29.87,WSW,257,26.0,37.0,64,0.00,,---,0.00,VWS V14.01,2013-02-04 06:28:00,
2013-02-04 01:33:00,29.6,18.2,29.87,West,271,22.0,30.0,62,0.00,,---,0.00,VWS V14.01,2013-02-04 06:33:00,
2013-02-04 01:38:00,29.4,16.5,29.87,WNW,284,20.0,34.0,58,0.00,,---,0.00,VWS V14.01,2013-02-04 06:38:00,
2013-02-04 01:43:00,29.2,15.1,29.88,WNW,297,28.0,37.0,55,0.00,,---,0.00,VWS V14.01,2013-02-04 06:43:00,
2013-02-04 01:48:00,29.1,15.0,29.88,WNW,293,19.0,37.0,55,0.00,,---,0.00,VWS V14.01,2013-02-04 06:48:00,
2013-02-04 01:53:00,29.0,14.4,29.88,West,281,37.0,37.0,54,0.00,,---,0.00,VWS V14.01,2013-02-04 06:53:00,
2013-02-04 01:58:00,28.9,13.9,29.89,WSW,253,15.0,37.0,53,0.00,,---,0.00,VWS V14.01,2013-02-04 06:58:00,
2013-02-04 02:03:00,28.7,13.3,29.89,WNW,283,16.0,33.0,52,0.00,,---,0.00,VWS V14.01,2013-02-04 07:03:00,
2013-02-04 02:08:00,28.6,13.6,29.89,WSW,255,24.0,33.0,53,0.00,,---,0.00,VWS V14.01,2013-02-04 07:08:00,
2013-02-04 02:13:00,28.5,12.7,29.89,West,261,18.0,33.0,51,0.00,,---,0.00,VWS V14.01,2013-02-04 07:13:00,
2013-02-04 02:18:00,28.3,13.4,29.89,West,269,20.0,33.0,53,0.00,,---,0.00,VWS V14.01,2013-02-04 07:18:00,
2013-02-04 02:23:00,28.1,13.6,29.90,West,277,13.0,33.0,54,0.00,,---,0.00,VWS V14.01,2013-02-04 07:23:00,
2013-02-04 02:28:00,28.0,13.5,29.90,WNW,297,8.0,33.0,54,0.00,,---,0.00,VWS V14.01,2013-02-04 07:28:00,
2013-02-04 02:33:00,27.8,12.5,29.90,WNW,288,20.0,26.0,52,0.00,,---,0.00,VWS V14.01,2013-02-04 07:33:00,
2013-02-04 02:38:00,27.7,13.2,29.91,West,270,28.0,28.0,54,0.00,,---,0.00,VWS V14.01,2013-02-04 07:38:00,
2013-02-04 02:43:00,27.6,13.1,29.91,WNW,285,8.0,28.0,54,0.00,,---,0.00,VWS V14.01,2013-02-04 07:43:00,
2013-02-04 02:48:00,27.5,13.5,29.91,WNW,286,12.0,28.0,55,0.00,,---,0.00,VWS V14.01,2013-02-04 07:48:00,
2013-02-04 02:53:00,27.4,13.4,29.91,West,266,16.0,28.0,55,0.00,,---,0.00,VWS V14.01,2013-02-04 07:53:00,
2013-02-04 02:58:00,27.3,12.0,29.91,NW,307,17.0,31.0,52,0.00,,---,0.00,VWS V14.01,2013-02-04 07:58:00,
2013-02-04 03:03:00,27.1,12.2,29.91,West,276,19.0,27.0,53,0.00,,---,0.00,VWS V14.01,2013-02-04 08:03:00,
2013-02-04 03:08:00,27.1,12.2,29.91,West,269,14.0,33.0,53,0.00,,---,0.00,VWS V14.01,2013-02-04 08:08:00,
2013-02-04 03:13:00,27.0,12.6,29.91,West,278,21.0,33.0,54,0.00,,---,0.00,VWS V14.01,2013-02-04 08:13:00,
2013-02-04 03:18:00,27.0,13.0,29.92,West,274,15.0,33.0,55,0.00,,---,0.00,VWS V14.01,2013-02-04 08:18:00,
2013-02-04 03:23:00,26.9,12.1,29.92,NW,314,18.0,33.0,53,0.00,,---,0.00,VWS V14.01,2013-02-04 08:23:00,
2013-02-04 03:28:00,26.6,12.2,29.92,SW,229,15.0,33.0,54,0.00,,---,0.00,VWS V14.01,2013-02-04 08:28:00,
2013-02-04 03:33:00,26.5,12.9,29.92,WSW,256,18.0,22.0,56,0.00,,---,0.00,VWS V14.01,2013-02-04 08:33:00,
2013-02-04 03:38:00,26.3,13.6,29.93,West,271,23.0,25.0,58,0.00,,---,0.00,VWS V14.01,2013-02-04 08:38:00,
2013-02-04 03:43:00,26.3,13.9,29.93,SSE,152,10.0,25.0,59,0.00,,---,0.00,VWS V14.01,2013-02-04 08:43:00,
2013-02-04 03:48:00,26.2,13.4,29.93,West,262,7.0,25.0,58,0.00,,---,0.00,VWS V14.01,2013-02-04 08:48:00,
2013-02-04 03:53:00,26.1,12.2,29.93,West,278,19.0,25.0,55,0.00,,---,0.00,VWS V14.01,2013-02-04 08:53:00,
2013-02-04 03:58:00,26.1,13.0,29.93,West,259,16.0,25.0,57,0.00,,---,0.00,VWS V14.01,2013-02-04 08:58:00,
2013-02-04 04:03:00,26.0,12.9,29.94,West,269,14.0,24.0,57,0.00,,---,0.00,VWS V14.01,2013-02-04 09:03:00,
2013-02-04 04:08:00,25.9,12.4,29.94,NW,316,19.0,26.0,56,0.00,,---,0.00,VWS V14.01,2013-02-04 09:08:00,
2013-02-04 04:13:00,25.9,13.6,29.94,West,264,16.0,26.0,59,0.00,,---,0.00,VWS V14.01,2013-02-04 09:13:00,
2013-02-04 04:18:00,25.8,13.1,29.94,West,274,19.0,26.0,58,0.00,,---,0.00,VWS V14.01,2013-02-04 09:18:00,
2013-02-04 04:23:00,25.7,13.0,29.94,WNW,291,13.0,26.0,58,0.00,,---,0.00,VWS V14.01,2013-02-04 09:23:00,
2013-02-04 04:28:00,25.6,13.7,29.95,WSW,251,11.0,26.0,60,0.00,,---,0.00,VWS V14.01,2013-02-04 09:28:00,
2013-02-04 04:33:00,25.6,12.9,29.95,West,271,20.0,25.0,58,0.00,,---,0.00,VWS V14.01,2013-02-04 09:33:00,
2013-02-04 04:38:00,25.6,12.9,29.95,WSW,248,19.0,26.0,58,0.00,,---,0.00,VWS V14.01,2013-02-04 09:38:00,
2013-02-04 04:43:00,25.4,13.5,29.95,West,269,15.0,26.0,60,0.00,,---,0.00,VWS V14.01,2013-02-04 09:43:00,
2013-02-04 04:48:00,25.3,13.4,29.95,WSW,252,23.0,26.0,60,0.00,,---,0.00,VWS V14.01,2013-02-04 09:48:00,
2013-02-04 04:53:00,25.3,13.0,29.96,West,266,12.0,26.0,59,0.00,,---,0.00,VWS V14.01,2013-02-04 09:53:00,
2013-02-04 04:58:00,25.1,13.2,29.96,WNW,292,11.0,26.0,60,0.00,,---,0.00,VWS V14.01,2013-02-04 09:58:00,
2013-02-04 05:03:00,25.0,13.5,29.96,West,270,14.0,19.0,61,0.00,,---,0.00,VWS V14.01,2013-02-04 10:03:00,
2013-02-04 05:08:00,24.9,13.7,29.97,West,260,9.0,19.0,62,0.00,,---,0.00,VWS V14.01,2013-02-04 10:08:00,
2013-02-04 05:14:00,24.9,13.4,29.97,West,268,13.0,19.0,61,0.00,,---,0.00,VWS V14.01,2013-02-04 10:14:00,
2013-02-04 05:19:00,24.8,13.3,29.97,West,273,13.0,19.0,61,0.00,,---,0.00,VWS V14.01,2013-02-04 10:19:00,
2013-02-04 05:24:00,24.7,13.2,29.97,WSW,251,17.0,19.0,61,0.00,,---,0.00,VWS V14.01,2013-02-04 10:24:00,
2013-02-04 05:29:00,24.7,13.6,29.97,SW,229,7.0,19.0,62,0.00,,---,0.00,VWS V14.01,2013-02-04 10:29:00,
2013-02-04 05:34:00,24.6,13.1,29.98,West,262,9.0,17.0,61,0.00,,---,0.00,VWS V14.01,2013-02-04 10:34:00,
2013-02-04 05:39:00,24.6,13.1,29.98,WNW,288,13.0,19.0,61,0.00,,---,0.00,VWS V14.01,2013-02-04 10:39:00,
2013-02-04 05:44:00,24.5,13.4,29.98,West,267,19.0,19.0,62,0.00,,---,0.00,VWS V14.01,2013-02-04 10:44:00,
2013-02-04 05:49:00,24.6,13.8,29.98,WNW,300,15.0,20.0,63,0.00,,---,0.00,VWS V14.01,2013-02-04 10:49:00,
2013-02-04 05:54:00,24.6,13.4,29.98,WSW,256,15.0,22.0,62,0.00,,---,0.00,VWS V14.01,2013-02-04 10:54:00,
2013-02-04 05:59:00,24.6,13.1,29.99,West,275,12.0,22.0,61,0.00,,---,0.00,VWS V14.01,2013-02-04 10:59:00,
2013-02-04 06:04:00,24.6,12.7,29.98,WSW,246,12.0,20.0,60,0.00,,---,0.00,VWS V14.01,2013-02-04 11:04:00,
2013-02-04 06:09:00,24.6,12.3,29.99,NW,310,10.0,20.0,59,0.00,,---,0.00,VWS V14.01,2013-02-04 11:09:00,
2013-02-04 06:14:00,24.6,12.7,29.99,West,271,15.0,20.0,60,0.00,,---,0.00,VWS V14.01,2013-02-04 11:14:00,
2013-02-04 06:19:00,24.6,12.7,29.99,WNW,286,11.0,22.0,60,0.00,,---,0.00,VWS V14.01,2013-02-04 11:19:00,
2013-02-04 06:24:00,24.4,12.5,29.99,West,265,7.0,22.0,60,0.00,,---,0.00,VWS V14.01,2013-02-04 11:24:00,
2013-02-04 06:29:00,24.3,13.2,29.99,NW,305,13.0,22.0,62,0.00,,---,0.00,VWS V14.01,2013-02-04 11:29:00,
2013-02-04 06:34:00,24.3,12.8,30.00,West,271,10.0,17.0,61,0.00,,---,0.00,VWS V14.01,2013-02-04 11:34:00,
2013-02-04 06:39:00,24.3,13.2,30.00,WSW,251,15.0,17.0,62,0.00,,---,0.00,VWS V14.01,2013-02-04 11:39:00,
2013-02-04 06:44:00,24.3,13.2,30.00,WNW,300,10.0,17.0,62,0.00,,---,0.00,VWS V14.01,2013-02-04 11:44:00,
2013-02-04 06:49:00,24.4,13.3,30.00,NW,305,15.0,17.0,62,0.00,,---,0.00,VWS V14.01,2013-02-04 11:49:00,
2013-02-04 06:54:00,24.4,12.5,30.00,NW,319,7.0,19.0,60,0.00,,---,0.00,VWS V14.01,2013-02-04 11:54:00,
2013-02-04 06:59:00,24.4,12.9,30.01,WNW,288,16.0,21.0,61,0.00,,---,0.00,VWS V14.01,2013-02-04 11:59:00,
2013-02-04 07:04:00,24.3,12.4,30.01,West,267,14.0,20.0,60,0.00,,---,0.00,VWS V14.01,2013-02-04 12:04:00,
2013-02-04 07:09:00,24.3,12.8,30.01,SSW,200,6.0,20.0,61,0.00,,---,0.00,VWS V14.01,2013-02-04 12:09:00,
2013-02-04 07:14:00,24.3,12.8,30.01,SW,226,12.0,20.0,61,0.00,,---,0.00,VWS V14.01,2013-02-04 12:14:00,
2013-02-04 07:19:00,24.4,12.5,30.01,WNW,282,14.0,20.0,60,0.00,,---,0.00,VWS V14.01,2013-02-04 12:19:00,
2013-02-04 07:24:00,24.4,12.9,30.02,West,270,4.0,20.0,61,0.00,,---,0.00,VWS V14.01,2013-02-04 12:24:00,
2013-02-04 07:29:00,24.5,13.4,30.02,West,270,10.0,20.0,62,0.00,,---,0.00,VWS V14.01,2013-02-04 12:29:00,
2013-02-04 07:34:00,24.4,12.9,30.03,West,262,11.0,14.0,61,0.00,,---,0.00,VWS V14.01,2013-02-04 12:34:00,
2013-02-04 07:39:00,24.5,13.4,30.03,WSW,245,10.0,16.0,62,0.00,,---,0.00,VWS V14.01,2013-02-04 12:39:00,
2013-02-04 07:44:00,24.5,13.4,30.04,West,260,8.0,16.0,62,0.00,,---,0.00,VWS V14.01,2013-02-04 12:44:00,
2013-02-04 07:49:00,24.6,13.4,30.04,WSW,257,12.0,16.0,62,0.00,,---,0.00,VWS V14.01,2013-02-04 12:49:00,
2013-02-04 07:54:00,24.7,13.2,30.05,WSW,255,9.0,16.0,61,0.00,,---,0.00,VWS V14.01,2013-02-04 12:54:00,
2013-02-04 07:59:00,24.8,13.3,30.05,ESE,118,9.0,16.0,61,0.00,,---,0.00,VWS V14.01,2013-02-04 12:59:00,
2013-02-04 08:04:00,24.9,13.4,30.06,SW,230,12.0,16.0,61,0.00,,---,0.00,VWS V14.01,2013-02-04 13:04:00,
2013-02-04 08:09:00,25.2,13.3,30.06,WSW,237,10.0,16.0,60,0.00,,---,0.00,VWS V14.01,2013-02-04 13:09:00,
2013-02-04 08:14:00,25.1,13.2,30.06,West,265,11.0,18.0,60,0.00,,---,0.00,VWS V14.01,2013-02-04 13:14:00,
2013-02-04 08:19:00,25.2,13.3,30.07,WSW,257,7.0,19.0,60,0.00,,---,0.00,VWS V14.01,2013-02-04 13:19:00,
2013-02-04 08:24:00,25.3,13.4,30.06,SW,225,12.0,20.0,60,0.00,,---,0.00,VWS V14.01,2013-02-04 13:24:00,
2013-02-04 08:29:00,25.5,13.6,30.07,SW,233,12.0,20.0,60,0.00,,---,0.00,VWS V14.01,2013-02-04 13:29:00,
2013-02-04 08:34:00,25.7,13.8,30.06,WSW,257,17.0,22.0,60,0.00,,---,0.00,VWS V14.01,2013-02-04 13:34:00,
2013-02-04 08:39:00,25.8,13.5,30.06,West,264,13.0,22.0,59,0.00,,---,0.00,VWS V14.01,2013-02-04 13:39:00,
2013-02-04 08:44:00,26.0,14.0,30.06,West,273,15.0,22.0,60,0.00,,---,0.00,VWS V14.01,2013-02-04 13:44:00,
2013-02-04 08:49:00,26.1,13.4,30.07,WNW,297,15.0,22.0,58,0.00,,---,0.00,VWS V14.01,2013-02-04 13:49:00,
2013-02-04 08:54:00,26.3,13.1,30.07,West,280,14.0,22.0,57,0.00,,---,0.00,VWS V14.01,2013-02-04 13:54:00,
2013-02-04 08:59:00,26.4,13.2,30.07,WNW,282,10.0,22.0,57,0.00,,---,0.00,VWS V14.01,2013-02-04 13:59:00,
2013-02-04 09:04:00,26.4,11.6,30.07,WSW,257,20.0,27.0,53,0.00,,---,0.00,VWS V14.01,2013-02-04 14:04:00,
2013-02-04 09:09:00,26.4,12.8,30.06,West,267,18.0,27.0,56,0.00,,---,0.00,VWS V14.01,2013-02-04 14:09:00,
2013-02-04 09:14:00,26.6,12.2,30.06,West,280,13.0,27.0,54,0.00,,---,0.00,VWS V14.01,2013-02-04 14:14:00,
2013-02-04 09:19:00,26.9,13.3,30.06,NW,315,16.0,27.0,56,0.00,,---,0.00,VWS V14.01,2013-02-04 14:19:00,
2013-02-04 09:24:00,26.9,13.3,30.06,WNW,284,14.0,27.0,56,0.00,,---,0.00,VWS V14.01,2013-02-04 14:24:00,
2013-02-04 09:29:00,27.0,12.2,30.06,West,262,17.0,27.0,53,0.00,,---,0.00,VWS V14.01,2013-02-04 14:29:00,
2013-02-04 09:34:00,27.1,12.2,30.06,SW,230,14.0,22.0,53,0.00,,---,0.00,VWS V14.01,2013-02-04 14:34:00,
2013-02-04 09:39:00,27.4,13.0,30.06,West,276,12.0,22.0,54,0.00,,---,0.00,VWS V14.01,2013-02-04 14:39:00,
2013-02-04 09:44:00,27.4,12.1,30.06,West,259,19.0,28.0,52,0.00,,---,0.00,VWS V14.01,2013-02-04 14:44:00,
2013-02-04 09:49:00,27.5,13.1,30.06,NW,326,14.0,28.0,54,0.00,,---,0.00,VWS V14.01,2013-02-04 14:49:00,
2013-02-04 09:54:00,27.4,11.7,30.06,NW,309,17.0,28.0,51,0.00,,---,0.00,VWS V14.01,2013-02-04 14:54:00,
2013-02-04 09:59:00,27.6,12.7,30.06,South,188,14.0,28.0,53,0.00,,---,0.00,VWS V14.01,2013-02-04 14:59:00,
2013-02-04 10:04:00,27.8,11.6,30.05,West,259,14.0,26.0,50,0.00,,---,0.00,VWS V14.01,2013-02-04 15:04:00,
2013-02-04 10:09:00,27.6,11.9,30.05,WSW,252,22.0,27.0,51,0.00,,---,0.00,VWS V14.01,2013-02-04 15:09:00,
2013-02-04 10:14:00,27.8,12.0,30.05,West,269,14.0,27.0,51,0.00,,---,0.00,VWS V14.01,2013-02-04 15:14:00,
2013-02-04 10:19:00,28.0,11.8,30.05,WNW,284,17.0,27.0,50,0.00,,---,0.00,VWS V14.01,2013-02-04 15:19:00,
2013-02-04 10:24:00,28.1,11.9,30.05,West,260,16.0,27.0,50,0.00,,---,0.00,VWS V14.01,2013-02-04 15:24:00,
2013-02-04 10:29:00,28.5,12.7,30.05,SSE,148,1.0,27.0,51,0.00,,---,0.00,VWS V14.01,2013-02-04 15:29:00,
2013-02-04 10:34:00,28.6,13.2,30.05,West,271,15.0,19.0,52,0.00,,---,0.00,VWS V14.01,2013-02-04 15:34:00,
2013-02-04 10:39:00,28.3,12.5,30.05,WSW,241,17.0,20.0,51,0.00,,---,0.00,VWS V14.01,2013-02-04 15:39:00,
2013-02-04 10:44:00,28.4,12.6,30.05,SW,219,11.0,20.0,51,0.00,,---,0.00,VWS V14.01,2013-02-04 15:44:00,
2013-02-04 10:49:00,28.4,12.1,30.05,WSW,237,12.0,20.0,50,0.00,,---,0.00,VWS V14.01,2013-02-04 15:49:00,
2013-02-04 10:54:00,28.8,12.5,30.05,NW,320,11.0,20.0,50,0.00,,---,0.00,VWS V14.01,2013-02-04 15:54:00,
2013-02-04 10:59:00,28.9,11.7,30.05,WNW,290,10.0,20.0,48,0.00,,---,0.00,VWS V14.01,2013-02-04 15:59:00,
2013-02-04 11:04:00,28.8,12.1,30.05,WSW,244,18.0,18.0,49,0.00,,---,0.00,VWS V14.01,2013-02-04 16:04:00,
2013-02-04 11:09:00,28.9,11.2,30.04,WSW,250,10.0,19.0,47,0.00,,---,0.00,VWS V14.01,2013-02-04 16:09:00,
2013-02-04 11:14:00,28.8,10.6,30.04,West,274,13.0,20.0,46,0.00,,---,0.00,VWS V14.01,2013-02-04 16:14:00,
2013-02-04 11:19:00,28.9,11.2,30.04,SW,236,20.0,24.0,47,0.00,,---,0.00,VWS V14.01,2013-02-04 16:19:00,
2013-02-04 11:24:00,29.1,10.9,30.04,SSW,212,13.0,24.0,46,0.00,,---,0.00,VWS V14.01,2013-02-04 16:24:00,
2013-02-04 11:29:00,29.0,11.3,30.04,South,175,8.0,24.0,47,0.00,,---,0.00,VWS V14.01,2013-02-04 16:29:00,
2013-02-04 11:34:00,29.4,12.6,30.04,WSW,256,17.0,19.0,49,0.00,,---,0.00,VWS V14.01,2013-02-04 16:34:00,
2013-02-04 11:39:00,29.0,11.3,30.03,WSW,248,9.0,19.0,47,0.00,,---,0.00,VWS V14.01,2013-02-04 16:39:00,
2013-02-04 11:44:00,29.3,12.5,30.03,West,259,9.0,21.0,49,0.00,,---,0.00,VWS V14.01,2013-02-04 16:44:00,
2013-02-04 11:49:00,29.3,11.1,30.03,SW,226,15.0,21.0,46,0.00,,---,0.00,VWS V14.01,2013-02-04 16:49:00,
2013-02-04 11:54:00,29.5,11.3,30.02,West,262,9.0,21.0,46,0.00,,---,0.00,VWS V14.01,2013-02-04 16:54:00,
2013-02-04 11:59:00,29.5,12.2,30.02,West,278,12.0,21.0,48,0.00,,---,0.00,VWS V14.01,2013-02-04 16:59:00,
2013-02-04 12:04:00,29.3,12.1,30.02,WSW,240,21.0,25.0,48,0.00,,---,0.00,VWS V14.01,2013-02-04 17:04:00,
2013-02-04 12:09:00,29.2,12.0,30.02,West,259,15.0,25.0,48,0.00,,---,0.00,VWS V14.01,2013-02-04 17:09:00,
2013-02-04 12:14:00,29.3,12.5,30.02,SW,236,23.0,25.0,49,0.00,,---,0.00,VWS V14.01,2013-02-04 17:14:00,
2013-02-04 12:19:00,29.4,11.2,30.01,WSW,240,18.0,25.0,46,0.00,,---,0.00,VWS V14.01,2013-02-04 17:19:00,
2013-02-04 12:24:00,29.4,10.7,30.01,West,260,18.0,25.0,45,0.00,,---,0.00,VWS V14.01,2013-02-04 17:24:00,
2013-02-04 12:29:00,29.7,11.5,30.01,West,272,10.0,25.0,46,0.00,,---,0.00,VWS V14.01,2013-02-04 17:29:00,
2013-02-04 12:34:00,29.7,11.5,30.01,WSW,239,15.0,22.0,46,0.00,,---,0.00,VWS V14.01,2013-02-04 17:34:00,
2013-02-04 12:39:00,29.8,10.6,30.01,WSW,248,16.0,22.0,44,0.00,,---,0.00,VWS V14.01,2013-02-04 17:39:00,
2013-02-04 12:44:00,30.0,12.2,30.00,West,266,11.0,22.0,47,0.00,,---,0.00,VWS V14.01,2013-02-04 17:44:00,
2013-02-04 12:49:00,29.9,11.2,30.00,West,276,13.0,25.0,45,0.00,,---,0.00,VWS V14.01,2013-02-04 17:49:00,
2013-02-04 12:55:00,29.7,11.5,30.00,West,280,19.0,25.0,46,0.00,,---,0.00,VWS V14.01,2013-02-04 17:55:00,
2013-02-04 13:00:00,29.7,11.5,30.00,SW,226,20.0,25.0,46,0.00,,---,0.00,VWS V14.01,2013-02-04 18:00:00,
2013-02-04 13:05:00,29.7,11.5,30.00,WSW,248,17.0,23.0,46,0.00,,---,0.00,VWS V14.01,2013-02-04 18:05:00,
2013-02-04 13:10:00,29.6,11.4,30.00,South,180,15.0,26.0,46,0.00,,---,0.00,VWS V14.01,2013-02-04 18:10:00,
2013-02-04 13:15:00,29.6,11.9,29.99,WSW,251,13.0,26.0,47,0.00,,---,0.00,VWS V14.01,2013-02-04 18:15:00,
2013-02-04 13:20:00,29.6,11.9,30.00,WSW,248,16.0,26.0,47,0.00,,---,0.00,VWS V14.01,2013-02-04 18:20:00,
2013-02-04 13:25:00,29.7,11.9,30.00,West,259,16.0,26.0,47,0.00,,---,0.00,VWS V14.01,2013-02-04 18:25:00,
2013-02-04 13:30:00,29.9,11.6,30.00,SW,220,21.0,26.0,46,0.00,,---,0.00,VWS V14.01,2013-02-04 18:30:00,
2013-02-04 13:35:00,30.0,12.7,29.99,West,272,10.0,18.0,48,0.00,,---,0.00,VWS V14.01,2013-02-04 18:35:00,
2013-02-04 13:40:00,30.1,12.8,29.98,West,259,17.0,18.0,48,0.00,,---,0.00,VWS V14.01,2013-02-04 18:40:00,
2013-02-04 13:45:00,29.6,11.9,29.98,West,276,11.0,23.0,47,0.00,,---,0.00,VWS V14.01,2013-02-04 18:45:00,
2013-02-04 13:50:00,29.9,13.1,29.99,West,259,10.0,23.0,49,0.00,,---,0.00,VWS V14.01,2013-02-04 18:50:00,
2013-02-04 13:55:00,29.8,12.5,29.98,West,265,13.0,23.0,48,0.00,,---,0.00,VWS V14.01,2013-02-04 18:55:00,
2013-02-04 14:00:00,29.9,12.1,29.98,West,264,13.0,23.0,47,0.00,,---,0.00,VWS V14.01,2013-02-04 19:00:00,
2013-02-04 14:05:00,29.8,12.0,29.98,SSE,153,9.0,20.0,47,0.00,,---,0.00,VWS V14.01,2013-02-04 19:05:00,
2013-02-04 14:10:00,29.7,11.9,29.97,SW,232,7.0,22.0,47,0.00,,---,0.00,VWS V14.01,2013-02-04 19:10:00,
2013-02-04 14:15:00,29.8,12.0,29.98,WSW,240,14.0,22.0,47,0.00,,---,0.00,VWS V14.01,2013-02-04 19:15:00,
2013-02-04 14:20:00,29.9,13.1,29.97,WNW,288,9.0,22.0,49,0.00,,---,0.00,VWS V14.01,2013-02-04 19:20:00,
2013-02-04 14:25:00,29.8,12.5,29.97,WNW,286,10.0,22.0,48,0.00,,---,0.00,VWS V14.01,2013-02-04 19:25:00,
2013-02-04 14:30:00,29.9,12.6,29.97,SW,226,8.0,22.0,48,0.00,,---,0.00,VWS V14.01,2013-02-04 19:30:00,
2013-02-04 14:35:00,30.1,13.3,29.98,WSW,251,11.0,21.0,49,0.00,,---,0.00,VWS V14.01,2013-02-04 19:35:00,
2013-02-04 14:40:00,30.0,12.2,29.98,WSW,251,11.0,21.0,47,0.00,,---,0.00,VWS V14.01,2013-02-04 19:40:00,
2013-02-04 14:45:00,30.0,12.7,29.98,SSW,210,8.0,21.0,48,0.00,,---,0.00,VWS V14.01,2013-02-04 19:45:00,
2013-02-04 14:50:00,30.2,13.8,29.98,WSW,249,10.0,21.0,50,0.00,,---,0.00,VWS V14.01,2013-02-04 19:50:00,
2013-02-04 14:55:00,30.1,13.3,29.98,SSW,195,8.0,21.0,49,0.00,,---,0.00,VWS V14.01,2013-02-04 19:55:00,
2013-02-04 15:00:00,30.3,13.4,29.98,South,181,11.0,21.0,49,0.00,,---,0.00,VWS V14.01,2013-02-04 20:00:00,
2013-02-04 15:05:00,30.3,13.4,29.98,SSW,196,7.0,19.0,49,0.00,,---,0.00,VWS V14.01,2013-02-04 20:05:00,
2013-02-04 15:10:00,30.1,13.3,29.98,WSW,240,14.0,19.0,49,0.00,,---,0.00,VWS V14.01,2013-02-04 20:10:00,
2013-02-04 15:15:00,30.2,12.9,29.98,WSW,243,16.0,20.0,48,0.00,,---,0.00,VWS V14.01,2013-02-04 20:15:00,
2013-02-04 15:20:00,30.3,13.4,29.98,SW,230,14.0,20.0,49,0.00,,---,0.00,VWS V14.01,2013-02-04 20:20:00,
2013-02-04 15:25:00,30.4,14.0,29.98,SW,229,22.0,22.0,50,0.00,,---,0.00,VWS V14.01,2013-02-04 20:25:00,
2013-02-04 15:30:00,30.3,13.4,29.98,West,270,11.0,22.0,49,0.00,,---,0.00,VWS V14.01,2013-02-04 20:30:00,
2013-02-04 15:35:00,30.4,14.0,29.98,SW,226,13.0,21.0,50,0.00,,---,0.00,VWS V14.01,2013-02-04 20:35:00,
2013-02-04 15:40:00,30.3,13.4,29.98,WSW,252,9.0,22.0,49,0.00,,---,0.00,VWS V14.01,2013-02-04 20:40:00,
2013-02-04 15:45:00,30.4,14.9,29.98,WNW,283,6.0,22.0,52,0.00,,---,0.00,VWS V14.01,2013-02-04 20:45:00,
2013-02-04 15:50:00,30.4,14.0,29.98,WSW,244,9.0,22.0,50,0.00,,---,0.00,VWS V14.01,2013-02-04 20:50:00,
2013-02-04 15:55:00,30.5,15.0,29.98,SW,222,6.0,22.0,52,0.00,,---,0.00,VWS V14.01,2013-02-04 20:55:00,
2013-02-04 16:00:00,30.4,14.0,29.98,WSW,248,12.0,22.0,50,0.00,,---,0.00,VWS V14.01,2013-02-04 21:00:00,
2013-02-04 16:05:00,30.4,14.4,29.98,WSW,238,7.0,17.0,51,0.00,,---,0.00,VWS V14.01,2013-02-04 21:05:00,
2013-02-04 16:10:00,30.4,14.0,29.98,WSW,248,11.0,17.0,50,0.00,,---,0.00,VWS V14.01,2013-02-04 21:10:00,
2013-02-04 16:15:00,30.5,15.4,29.98,WSW,248,12.0,18.0,53,0.00,,---,0.00,VWS V14.01,2013-02-04 21:15:00,
2013-02-04 16:20:00,30.5,14.5,29.98,SW,229,18.0,18.0,51,0.00,,---,0.00,VWS V14.01,2013-02-04 21:20:00,
2013-02-04 16:25:00,30.5,15.4,29.98,WNW,293,13.0,18.0,53,0.00,,---,0.00,VWS V14.01,2013-02-04 21:25:00,
2013-02-04 16:30:00,30.6,15.1,29.98,SW,218,11.0,18.0,52,0.00,,---,0.00,VWS V14.01,2013-02-04 21:30:00,
2013-02-04 16:35:00,30.5,15.0,29.99,SE,146,11.0,19.0,52,0.00,,---,0.00,VWS V14.01,2013-02-04 21:35:00,
2013-02-04 16:40:00,30.6,15.1,29.99,SW,220,9.0,19.0,52,0.00,,---,0.00,VWS V14.01,2013-02-04 21:40:00,
2013-02-04 16:45:00,30.6,15.1,29.99,SW,229,5.0,19.0,52,0.00,,---,0.00,VWS V14.01,2013-02-04 21:45:00,
2013-02-04 16:50:00,30.6,15.1,29.99,WSW,248,12.0,21.0,52,0.00,,---,0.00,VWS V14.01,2013-02-04 21:50:00,
2013-02-04 16:55:00,30.5,15.4,29.99,WSW,243,17.0,21.0,53,0.00,,---,0.00,VWS V14.01,2013-02-04 21:55:00,
2013-02-04 17:00:00,30.5,15.4,29.99,WSW,253,11.0,11.0,53,0.00,,---,0.00,VWS V14.01,2013-02-04 22:00:00,
2013-02-04 17:05:00,30.4,16.2,29.99,SW,229,11.0,17.0,55,0.00,,---,0.00,VWS V14.01,2013-02-04 22:05:00,
2013-02-04 17:10:00,30.5,15.4,29.99,SW,224,12.0,18.0,53,0.00,,---,0.00,VWS V14.01,2013-02-04 22:10:00,
2013-02-04 17:15:00,30.4,15.3,29.99,South,181,9.0,18.0,53,0.00,,---,0.00,VWS V14.01,2013-02-04 22:15:00,
2013-02-04 17:20:00,30.4,16.2,29.99,SW,233,7.0,18.0,55,0.00,,---,0.00,VWS V14.01,2013-02-04 22:20:00,
2013-02-04 17:25:00,30.3,15.7,29.99,South,190,3.0,18.0,54,0.00,,---,0.00,VWS V14.01,2013-02-04 22:25:00,
2013-02-04 17:30:00,30.3,15.7,29.99,SSW,204,4.0,8.0,54,0.00,,---,0.00,VWS V14.01,2013-02-04 22:30:00,
2013-02-04 17:35:00,30.2,16.0,29.98,SSW,195,8.0,10.0,55,0.00,,---,0.00,VWS V14.01,2013-02-04 22:35:00,
2013-02-04 17:40:00,30.1,16.3,29.98,SSE,167,3.0,10.0,56,0.00,,---,0.00,VWS V14.01,2013-02-04 22:40:00,
2013-02-04 17:45:00,30.0,16.6,29.99,SW,231,2.0,10.0,57,0.00,,---,0.00,VWS V14.01,2013-02-04 22:45:00,
2013-02-04 17:50:00,29.9,16.9,29.99,SW,236,5.0,10.0,58,0.00,,---,0.00,VWS V14.01,2013-02-04 22:50:00,
2013-02-04 17:55:00,29.8,16.4,29.99,SE,139,1.0,10.0,57,0.00,,---,0.00,VWS V14.01,2013-02-04 22:55:00,
2013-02-04 18:00:00,29.8,16.4,30.00,South,175,1.0,4.0,57,0.00,,---,0.00,VWS V14.01,2013-02-04 23:00:00,
2013-02-04 18:05:00,29.7,16.4,30.00,SSW,211,3.0,7.0,57,0.00,,---,0.00,VWS V14.01,2013-02-04 23:05:00,
2013-02-04 18:10:00,29.7,16.8,30.00,SSW,206,6.0,7.0,58,0.00,,---,0.00,VWS V14.01,2013-02-04 23:10:00,
2013-02-04 18:15:00,29.7,16.8,30.00,SW,231,4.0,12.0,58,0.00,,---,0.00,VWS V14.01,2013-02-04 23:15:00,
2013-02-04 18:20:00,29.7,17.1,30.00,SSW,201,7.0,12.0,59,0.00,,---,0.00,VWS V14.01,2013-02-04 23:20:00,
2013-02-04 18:25:00,29.6,17.4,30.00,NNE,33,3.0,12.0,60,0.00,,---,0.00,VWS V14.01,2013-02-04 23:25:00,
2013-02-04 18:30:00,29.7,17.1,30.00,SW,233,5.0,8.0,59,0.00,,---,0.00,VWS V14.01,2013-02-04 23:30:00,
2013-02-04 18:35:00,29.6,17.4,30.00,South,183,1.0,9.0,60,0.00,,---,0.00,VWS V14.01,2013-02-04 23:35:00,
2013-02-04 18:40:00,29.5,17.3,30.00,WSW,243,4.0,9.0,60,0.00,,---,0.00,VWS V14.01,2013-02-04 23:40:00,
2013-02-04 18:45:00,29.4,17.2,30.00,SE,144,2.0,9.0,60,0.00,,---,0.00,VWS V14.01,2013-02-04 23:45:00,
2013-02-04 18:50:00,29.4,17.2,30.00,WSW,241,2.0,9.0,60,0.00,,---,0.00,VWS V14.01,2013-02-04 23:50:00,
2013-02-04 18:55:00,29.3,17.1,30.00,SSW,206,4.0,9.0,60,0.00,,---,0.00,VWS V14.01,2013-02-04 23:55:00,
2013-02-04 19:01:00,29.2,17.1,30.00,SSW,192,2.0,4.0,60,0.00,,---,0.00,VWS V14.01,2013-02-05 00:01:00,
2013-02-04 19:06:00,29.1,17.0,30.00,SSW,207,2.0,4.0,60,0.00,,---,0.00,VWS V14.01,2013-02-05 00:06:00,
2013-02-04 19:11:00,29.0,16.9,30.00,SSE,166,2.0,7.0,60,0.00,,---,0.00,VWS V14.01,2013-02-05 00:11:00,
2013-02-04 19:16:00,29.0,16.9,30.00,SSE,156,1.0,7.0,60,0.00,,---,0.00,VWS V14.01,2013-02-05 00:16:00,
2013-02-04 19:21:00,28.9,16.8,30.00,SW,223,2.0,7.0,60,0.00,,---,0.00,VWS V14.01,2013-02-05 00:21:00,
2013-02-04 19:26:00,29.0,17.2,30.00,SSW,207,2.0,7.0,61,0.00,,---,0.00,VWS V14.01,2013-02-05 00:26:00,
2013-02-04 19:31:00,28.9,17.2,30.01,SSW,198,2.0,3.0,61,0.00,,---,0.00,VWS V14.01,2013-02-05 00:31:00,
2013-02-04 19:36:00,28.9,17.5,30.00,South,190,1.0,3.0,62,0.00,,---,0.00,VWS V14.01,2013-02-05 00:36:00,
2013-02-04 19:41:00,28.8,17.4,30.00,SSW,207,0.0,3.0,62,0.00,,---,0.00,VWS V14.01,2013-02-05 00:41:00,
2013-02-04 19:46:00,28.9,17.9,29.99,SSW,212,0.0,3.0,63,0.00,,---,0.00,VWS V14.01,2013-02-05 00:46:00,
2013-02-04 19:51:00,28.9,17.9,30.00,SSW,210,0.0,3.0,63,0.00,,---,0.00,VWS V14.01,2013-02-05 00:51:00,
2013-02-04 19:56:00,29.0,18.0,30.00,SW,214,0.0,3.0,63,0.00,,---,0.00,VWS V14.01,2013-02-05 00:56:00,
2013-02-04 20:01:00,29.0,17.6,30.00,SSW,192,1.0,2.0,62,0.00,,---,0.00,VWS V14.01,2013-02-05 01:01:00,
2013-02-04 20:06:00,29.1,17.7,30.00,South,179,1.0,4.0,62,0.00,,---,0.00,VWS V14.01,2013-02-05 01:06:00,
2013-02-04 20:11:00,29.3,17.5,29.99,SSE,166,0.0,4.0,61,0.00,,---,0.00,VWS V14.01,2013-02-05 01:11:00,
2013-02-04 20:16:00,29.5,17.3,29.99,South,186,2.0,4.0,60,0.00,,---,0.00,VWS V14.01,2013-02-05 01:16:00,
2013-02-04 20:21:00,29.7,17.5,29.99,SSW,203,1.0,4.0,60,0.00,,---,0.00,VWS V14.01,2013-02-05 01:21:00,
2013-02-04 20:26:00,29.8,17.6,29.99,South,183,3.0,4.0,60,0.00,,---,0.00,VWS V14.01,2013-02-05 01:26:00,
2013-02-04 20:31:00,30.0,17.8,29.99,SSW,210,0.0,2.0,60,0.00,,---,0.00,VWS V14.01,2013-02-05 01:31:00,
2013-02-04 20:36:00,30.1,17.9,30.00,WSW,256,2.0,5.0,60,0.00,,---,0.00,VWS V14.01,2013-02-05 01:36:00,
2013-02-04 20:41:00,30.2,18.0,29.99,SSW,207,2.0,5.0,60,0.00,,---,0.00,VWS V14.01,2013-02-05 01:41:00,
2013-02-04 20:46:00,30.3,18.1,29.99,SSW,208,0.0,5.0,60,0.00,,---,0.00,VWS V14.01,2013-02-05 01:46:00,
2013-02-04 20:51:00,30.5,18.3,29.99,SW,214,1.0,5.0,60,0.00,,---,0.00,VWS V14.01,2013-02-05 01:51:00,
2013-02-04 20:56:00,30.6,18.4,29.99,SSW,195,0.0,5.0,60,0.00,,---,0.00,VWS V14.01,2013-02-05 01:56:00,
2013-02-04 21:01:00,30.7,18.9,29.99,SW,219,1.0,8.0,61,0.00,,---,0.00,VWS V14.01,2013-02-05 02:01:00,
2013-02-04 21:06:00,31.1,19.2,29.99,SSW,192,1.0,8.0,61,0.00,,---,0.00,VWS V14.01,2013-02-05 02:06:00,
2013-02-04 21:11:00,31.3,19.8,29.99,South,169,2.0,8.0,62,0.00,,---,0.00,VWS V14.01,2013-02-05 02:11:00,
2013-02-04 21:16:00,31.5,20.0,29.99,South,179,3.0,8.0,62,0.00,,---,0.00,VWS V14.01,2013-02-05 02:16:00,
2013-02-04 21:21:00,31.8,20.3,29.98,SSE,167,2.0,8.0,62,0.00,,---,0.00,VWS V14.01,2013-02-05 02:21:00,
2013-02-04 21:26:00,32.0,20.5,29.98,SE,141,0.0,8.0,62,0.00,,---,0.00,VWS V14.01,2013-02-05 02:26:00,
2013-02-04 21:31:00,32.1,20.6,29.98,SW,222,3.0,4.0,62,0.00,,---,0.00,VWS V14.01,2013-02-05 02:31:00,
2013-02-04 21:36:00,32.2,20.7,29.98,WSW,240,0.0,4.0,62,0.00,,---,0.00,VWS V14.01,2013-02-05 02:36:00,
2013-02-04 21:41:00,32.4,20.9,29.97,SSW,212,2.0,4.0,62,0.00,,---,0.00,VWS V14.01,2013-02-05 02:41:00,
2013-02-04 21:46:00,32.5,20.9,29.97,WSW,237,1.0,5.0,62,0.00,,---,0.00,VWS V14.01,2013-02-05 02:46:00,
2013-02-04 21:51:00,32.7,20.8,29.97,SE,146,0.0,5.0,61,0.00,,---,0.00,VWS V14.01,2013-02-05 02:51:00,
2013-02-04 21:56:00,32.8,20.9,29.97,South,189,3.0,5.0,61,0.00,,---,0.00,VWS V14.01,2013-02-05 02:56:00,
2013-02-04 22:01:00,32.9,20.9,29.97,SSW,195,1.0,3.0,61,0.00,,---,0.00,VWS V14.01,2013-02-05 03:01:00,
2013-02-04 22:06:00,32.9,20.9,29.97,SSE,160,2.0,6.0,61,0.00,,---,0.00,VWS V14.01,2013-02-05 03:06:00,
2013-02-04 22:11:00,33.0,21.0,29.97,SW,232,2.0,6.0,61,0.00,,---,0.00,VWS V14.01,2013-02-05 03:11:00,
2013-02-04 22:16:00,33.0,20.6,29.97,SW,216,3.0,6.0,60,0.00,,---,0.00,VWS V14.01,2013-02-05 03:16:00,
2013-02-04 22:21:00,33.1,21.1,29.98,WSW,243,3.0,6.0,61,0.00,,---,0.00,VWS V14.01,2013-02-05 03:21:00,
2013-02-04 22:26:00,33.0,21.4,29.98,SSW,211,2.0,6.0,62,0.00,,---,0.00,VWS V14.01,2013-02-05 03:26:00,
2013-02-04 22:31:00,33.0,21.4,29.98,SW,221,2.0,3.0,62,0.00,,---,0.00,VWS V14.01,2013-02-05 03:31:00,
2013-02-04 22:36:00,33.1,21.1,29.97,ESE,118,3.0,5.0,61,0.00,,---,0.00,VWS V14.01,2013-02-05 03:36:00,
2013-02-04 22:41:00,33.3,21.3,29.97,South,170,4.0,5.0,61,0.00,,---,0.00,VWS V14.01,2013-02-05 03:41:00,
2013-02-04 22:46:00,33.5,21.5,29.98,SW,220,1.0,6.0,61,0.00,,---,0.00,VWS V14.01,2013-02-05 03:46:00,
2013-02-04 22:51:00,33.5,21.5,29.97,SW,214,1.0,6.0,61,0.00,,---,0.00,VWS V14.01,2013-02-05 03:51:00,
2013-02-04 22:56:00,33.6,22.0,29.97,SSW,204,0.0,6.0,62,0.00,,---,0.00,VWS V14.01,2013-02-05 03:56:00,
2013-02-04 23:01:00,33.6,22.0,29.97,West,277,1.0,5.0,62,0.00,,---,0.00,VWS V14.01,2013-02-05 04:01:00,
2013-02-04 23:06:00,33.7,22.5,29.97,SSE,161,0.0,5.0,63,0.00,,---,0.00,VWS V14.01,2013-02-05 04:06:00,
2013-02-04 23:11:00,33.7,22.5,29.97,West,276,0.0,5.0,63,0.00,,---,0.00,VWS V14.01,2013-02-05 04:11:00,
2013-02-04 23:16:00,33.3,23.2,29.96,WNW,286,1.0,5.0,66,0.00,,---,0.00,VWS V14.01,2013-02-05 04:16:00,
2013-02-04 23:21:00,32.8,23.4,29.96,WNW,286,1.0,5.0,68,0.00,,---,0.00,VWS V14.01,2013-02-05 04:21:00,
2013-02-04 23:26:00,32.7,23.3,29.96,NNW,330,1.0,5.0,68,0.00,,---,0.00,VWS V14.01,2013-02-05 04:26:00,
2013-02-04 23:31:00,32.5,23.5,29.96,NNW,341,1.0,1.0,69,0.00,,---,0.00,VWS V14.01,2013-02-05 04:31:00,
2013-02-04 23:36:00,32.4,23.7,29.96,NW,304,1.0,2.0,70,0.00,,---,0.00,VWS V14.01,2013-02-05 04:36:00,
2013-02-04 23:41:00,32.2,23.5,29.96,NW,326,0.0,2.0,70,0.00,,---,0.00,VWS V14.01,2013-02-05 04:41:00,
2013-02-04 23:46:00,32.0,23.3,29.96,NW,319,3.0,3.0,70,0.00,,---,0.00,VWS V14.01,2013-02-05 04:46:00,
2013-02-04 23:51:00,31.9,23.2,29.96,WNW,285,2.0,4.0,70,0.00,,---,0.00,VWS V14.01,2013-02-05 04:51:00,
2013-02-04 23:56:00,31.9,23.2,29.96,NW,304,1.0,4.0,70,0.00,,---,0.00,VWS V14.01,2013-02-05 04:56:00,